createdAt,value
2018-10-19T00:01:54.885Z,60.53
2018-10-19T00:04:26.277Z,61.73
2018-10-19T00:06:57.722Z,60.93
2018-10-19T00:09:29.090Z,61.03
2018-10-19T00:12:00.280Z,63.40
2018-10-19T00:14:31.744Z,66.13
2018-10-19T00:17:03.314Z,69.87
2018-10-19T00:19:34.857Z,66.33
2018-10-19T00:22:06.701Z,71.77
2018-10-19T00:24:38.197Z,63.93
2018-10-19T00:27:09.657Z,62.07
2018-10-19T00:29:41.197Z,63.20
2018-10-19T00:32:12.695Z,65.93
2018-10-19T00:34:43.979Z,67.87
2018-10-19T00:37:15.151Z,62.70
2018-10-19T00:39:46.500Z,69.83
2018-10-19T00:42:17.748Z,64.37
2018-10-19T00:44:48.942Z,65.73
2018-10-19T00:47:20.138Z,63.10
2018-10-19T00:49:51.301Z,61.33
2018-10-19T00:52:22.500Z,60.07
2018-10-19T00:54:53.703Z,64.37
2018-10-19T00:57:25.365Z,65.90
2018-10-19T00:59:56.668Z,66.47
2018-10-19T01:02:27.954Z,70.83
2018-10-19T01:04:59.302Z,66.67
2018-10-19T01:07:30.905Z,65.80
2018-10-19T01:10:02.233Z,64.93
2018-10-19T01:12:33.417Z,70.43
2018-10-19T01:15:04.825Z,66.27
2018-10-19T01:17:36.224Z,64.30
2018-10-19T01:20:07.984Z,66.53
2018-10-19T01:22:39.157Z,65.43
2018-10-19T01:25:10.364Z,66.23
2018-10-19T01:27:41.565Z,62.70
2018-10-19T01:30:12.938Z,59.20
2018-10-19T01:32:44.177Z,63.77
2018-10-19T01:35:16.244Z,66.80
2018-10-19T01:37:47.492Z,66.57
2018-10-19T01:40:19.142Z,67.60
2018-10-19T01:42:50.641Z,63.80
2018-10-19T01:45:21.873Z,62.10
2018-10-19T01:47:53.065Z,60.60
2018-10-19T01:50:24.245Z,58.23
2018-10-19T01:52:55.680Z,63.23
2018-10-19T01:55:27.025Z,59.17
2018-10-19T01:57:58.202Z,59.70
2018-10-19T02:00:29.346Z,57.10
2018-10-19T02:03:00.925Z,52.07
2018-10-19T02:05:32.414Z,55.90
2018-10-19T02:08:03.787Z,51.00
2018-10-19T02:10:35.125Z,58.20
2018-10-19T02:13:06.976Z,59.57
2018-10-19T02:15:38.531Z,62.93
2018-10-19T02:18:09.933Z,59.83
2018-10-19T02:20:42.913Z,65.10
2018-10-19T02:23:14.087Z,65.53
2018-10-19T02:25:45.451Z,70.20
2018-10-19T02:28:17.105Z,65.50
2018-10-19T02:30:48.411Z,69.80
2018-10-19T02:33:19.703Z,61.80
2018-10-19T02:35:51.186Z,64.27
2018-10-19T02:38:22.565Z,61.37
2018-10-19T02:40:53.997Z,64.63
2018-10-19T02:43:25.677Z,62.60
2018-10-19T02:45:56.926Z,61.00
2018-10-19T02:48:28.140Z,62.20
2018-10-19T02:50:59.517Z,64.13
2018-10-19T02:53:30.894Z,54.93
2018-10-19T02:56:02.583Z,56.83
2018-10-19T02:58:33.870Z,60.53
2018-10-19T03:01:05.083Z,63.07
2018-10-19T03:03:36.310Z,56.97
2018-10-19T03:06:07.505Z,58.20
2018-10-19T03:08:39.109Z,61.00
2018-10-19T03:11:10.505Z,61.37
2018-10-19T03:13:42.676Z,61.70
2018-10-19T03:16:13.992Z,56.67
2018-10-19T03:18:45.376Z,52.17
2018-10-19T03:21:16.832Z,59.53
2018-10-19T03:23:48.349Z,57.53
2018-10-19T03:26:19.710Z,51.43
2018-10-19T03:28:50.936Z,54.50
2018-10-19T03:31:22.291Z,52.60
2018-10-19T03:33:53.857Z,51.13
2018-10-19T03:36:25.745Z,50.40
2018-10-19T03:38:57.134Z,53.53
2018-10-19T03:41:28.921Z,49.93
2018-10-19T03:44:00.109Z,50.80
2018-10-19T03:46:32.252Z,50.30
2018-10-19T03:49:03.687Z,53.23
2018-10-19T03:51:35.102Z,51.83
2018-10-19T03:54:06.862Z,46.50
2018-10-19T03:56:38.174Z,56.67
2018-10-19T03:59:09.570Z,58.90
2018-10-19T04:01:40.938Z,52.10
2018-10-19T04:04:12.329Z,54.43
2018-10-19T04:06:43.708Z,55.13
2018-10-19T04:09:15.229Z,57.03
2018-10-19T04:11:46.685Z,57.30
2018-10-19T04:14:18.081Z,54.30
2018-10-19T04:16:49.529Z,63.67
2018-10-19T04:19:20.833Z,67.23
2018-10-19T04:21:52.530Z,62.60
2018-10-19T04:24:24.035Z,64.57
2018-10-19T04:26:55.741Z,58.33
2018-10-19T04:29:27.142Z,55.60
2018-10-19T04:31:58.593Z,56.83
2018-10-19T04:34:29.781Z,59.23
2018-10-19T04:37:05.262Z,57.73
2018-10-19T04:39:36.674Z,50.63
2018-10-19T04:42:08.753Z,49.50
2018-10-19T04:44:39.958Z,50.77
2018-10-19T04:47:11.719Z,48.37
2018-10-19T04:49:43.234Z,49.23
2018-10-19T04:52:14.413Z,50.40
2018-10-19T04:54:45.807Z,48.23
2018-10-19T04:57:17.296Z,46.03
2018-10-19T04:59:48.772Z,50.10
2018-10-19T05:02:20.179Z,45.90
2018-10-19T05:04:51.645Z,49.00
2018-10-19T05:07:23.121Z,51.93
2018-10-19T05:09:54.504Z,52.37
2018-10-19T05:12:25.943Z,51.33
2018-10-19T05:14:57.292Z,52.37
2018-10-19T05:17:29.177Z,51.63
2018-10-19T05:20:00.712Z,49.33
2018-10-19T05:22:32.185Z,57.37
2018-10-19T05:25:03.669Z,54.97
2018-10-19T05:27:34.854Z,54.70
2018-10-19T05:30:08.074Z,53.57
2018-10-19T05:32:39.881Z,50.90
2018-10-19T05:35:11.464Z,51.50
2018-10-19T05:37:42.888Z,56.57
2018-10-19T05:40:14.337Z,49.10
2018-10-19T05:42:45.711Z,51.23
2018-10-19T05:45:17.137Z,54.30
2018-10-19T05:47:48.518Z,51.93
2018-10-19T05:50:19.874Z,57.63
2018-10-19T05:52:51.338Z,53.50
2018-10-19T05:55:22.645Z,49.93
2018-10-19T05:57:54.041Z,46.47
2018-10-19T06:00:25.446Z,47.37
2018-10-19T06:02:56.670Z,49.47
2018-10-19T06:05:27.872Z,46.60
2018-10-19T06:07:59.233Z,44.13
2018-10-19T06:10:31.351Z,45.70
2018-10-19T06:13:02.755Z,51.10
2018-10-19T06:15:33.974Z,51.47
2018-10-19T06:18:05.421Z,54.47
2018-10-19T06:20:36.727Z,47.80
2018-10-19T06:23:08.327Z,49.63
2018-10-19T06:25:39.734Z,51.43
2018-10-19T06:28:11.086Z,52.37
2018-10-19T06:30:42.481Z,48.27
2018-10-19T06:33:13.858Z,45.47
2018-10-19T06:35:45.093Z,42.73
2018-10-19T06:38:17.235Z,45.27
2018-10-19T06:40:48.488Z,46.03
2018-10-19T06:43:19.829Z,46.93
2018-10-19T06:45:51.039Z,41.83
2018-10-19T06:48:22.404Z,40.53
2018-10-19T06:50:53.607Z,37.97
2018-10-19T06:53:24.878Z,38.70
2018-10-19T06:55:56.378Z,38.90
2018-10-19T06:58:27.737Z,35.30
2018-10-19T07:00:58.987Z,34.07
2018-10-19T07:03:30.145Z,36.80
2018-10-19T07:06:01.752Z,32.50
2018-10-19T07:08:33.111Z,32.97
2018-10-19T07:11:05.012Z,34.10
2018-10-19T07:13:36.298Z,33.70
2018-10-19T07:16:07.754Z,37.87
2018-10-19T07:18:39.529Z,36.37
2018-10-19T07:21:11.689Z,40.30
2018-10-19T07:23:43.074Z,40.23
2018-10-19T07:26:14.754Z,46.60
2018-10-19T07:28:46.205Z,48.63
2018-10-19T07:31:17.805Z,48.13
2018-10-19T07:33:49.753Z,54.77
2018-10-19T07:36:21.155Z,52.03
2018-10-19T07:38:52.988Z,51.37
2018-10-19T07:41:24.314Z,56.30
2018-10-19T07:43:55.821Z,55.50
2018-10-19T07:46:27.677Z,69.20
2018-10-19T07:48:59.094Z,59.97
2018-10-19T07:51:30.547Z,67.87
2018-10-19T07:54:02.231Z,63.03
2018-10-19T07:56:33.477Z,66.67
2018-10-19T07:59:04.708Z,69.90
2018-10-19T08:01:36.258Z,55.70
2018-10-19T08:04:07.627Z,63.87
2018-10-19T08:06:38.952Z,61.20
2018-10-19T08:09:12.129Z,63.73
2018-10-19T08:11:43.821Z,62.20
2018-10-19T08:14:15.360Z,61.27
2018-10-19T08:16:46.697Z,62.60
2018-10-19T08:19:18.078Z,60.50
2018-10-19T08:21:49.465Z,58.27
2018-10-19T08:24:20.917Z,61.97
2018-10-19T08:26:52.281Z,58.53
2018-10-19T08:29:23.647Z,62.07
2018-10-19T08:31:55.071Z,66.60
2018-10-19T08:34:26.470Z,71.67
2018-10-19T08:36:57.793Z,68.77
2018-10-19T08:39:29.212Z,67.87
2018-10-19T08:42:00.581Z,64.50
2018-10-19T08:44:32.197Z,62.20
2018-10-19T08:47:03.459Z,60.97
2018-10-19T08:49:34.949Z,67.80
2018-10-19T08:52:06.986Z,62.13
2018-10-19T08:54:38.984Z,57.20
2018-10-19T08:57:11.368Z,63.03
2018-10-19T08:59:42.684Z,54.03
2018-10-19T09:02:14.914Z,54.23
2018-10-19T09:04:46.099Z,49.73
2018-10-19T09:07:17.404Z,54.20
2018-10-19T09:09:48.646Z,49.70
2018-10-19T09:12:20.785Z,49.83
2018-10-19T09:15:00.629Z,56.73
2018-10-19T09:17:32.008Z,56.80
2018-10-19T09:20:03.456Z,56.90
2018-10-19T09:22:35.684Z,61.73
2018-10-19T09:25:07.567Z,54.80
2018-10-19T09:27:38.940Z,55.13
2018-10-19T09:30:10.405Z,53.97
2018-10-19T09:32:41.912Z,55.73
2018-10-19T09:35:13.461Z,56.77
2018-10-19T09:37:44.714Z,54.53
2018-10-19T09:40:16.240Z,55.30
2018-10-19T09:42:47.506Z,53.30
2018-10-19T09:45:18.702Z,54.00
2018-10-19T09:47:50.121Z,56.20
2018-10-19T09:50:21.631Z,52.83
2018-10-19T09:52:53.049Z,49.63
2018-10-19T09:55:39.691Z,52.40
2018-10-19T09:58:11.114Z,48.40
2018-10-19T10:00:47.424Z,50.33
2018-10-19T10:03:18.753Z,49.43
2018-10-19T10:05:50.043Z,48.43
2018-10-19T10:08:21.528Z,47.70
2018-10-19T10:10:53.021Z,51.17
2018-10-19T10:13:24.247Z,47.70
2018-10-19T10:15:55.902Z,48.27
2018-10-19T10:18:27.414Z,43.23
2018-10-19T10:20:58.738Z,42.83
2018-10-19T10:23:30.138Z,43.37
2018-10-19T10:26:01.610Z,43.67
2018-10-19T10:28:33.117Z,46.10
2018-10-19T10:31:04.392Z,40.73
2018-10-19T10:33:36.811Z,41.13
2018-10-19T10:36:08.063Z,38.03
2018-10-19T10:38:39.340Z,41.70
2018-10-19T10:41:11.066Z,45.10
2018-10-19T10:43:42.284Z,41.70
2018-10-19T10:46:13.837Z,39.80
2018-10-19T10:48:45.023Z,39.43
2018-10-19T10:51:16.655Z,38.93
2018-10-19T10:53:48.154Z,36.13
2018-10-19T10:56:19.547Z,36.07
2018-10-19T10:58:50.745Z,33.80
2018-10-19T11:01:22.151Z,31.73
2018-10-19T11:03:53.431Z,33.40
2018-10-19T11:06:25.609Z,35.30
2018-10-19T11:08:57.105Z,37.00
2018-10-19T11:11:28.458Z,35.10
2018-10-19T11:13:59.801Z,32.20
2018-10-19T11:16:31.277Z,30.90
2018-10-19T11:19:02.367Z,31.23
2018-10-19T11:21:33.820Z,30.73
2018-10-19T11:24:05.873Z,33.13
2018-10-19T11:26:37.299Z,29.73
2018-10-19T11:29:15.415Z,28.23
2018-10-19T11:31:46.556Z,27.53
2018-10-19T11:34:18.076Z,31.03
2018-10-19T11:36:49.145Z,30.60
2018-10-19T11:39:20.463Z,35.17
2018-10-19T11:41:51.742Z,31.47
2018-10-19T11:44:22.903Z,28.40
2018-10-19T11:46:54.457Z,32.70
2018-10-19T11:49:25.669Z,27.77
2018-10-19T11:51:56.685Z,28.77
2018-10-19T11:54:28.044Z,29.37
2018-10-19T11:56:59.074Z,28.73
2018-10-19T11:59:31.171Z,34.43
2018-10-19T12:02:02.603Z,27.17
2018-10-19T12:04:33.630Z,28.77
2018-10-19T12:07:04.878Z,30.53
2018-10-19T12:09:36.206Z,26.33
2018-10-19T12:12:07.676Z,25.57
2018-10-19T12:14:39.033Z,25.43
2018-10-19T12:17:10.423Z,27.07
2018-10-19T12:19:41.581Z,27.07
2018-10-19T12:22:12.924Z,28.23
2018-10-19T12:24:44.125Z,27.13
2018-10-19T12:27:15.898Z,25.87
2018-10-19T12:29:47.030Z,25.70
2018-10-19T12:32:18.514Z,26.33
2018-10-19T12:34:50.396Z,27.80
2018-10-19T12:37:21.721Z,24.57
2018-10-19T12:39:53.099Z,25.50
2018-10-19T12:42:24.421Z,24.27
2018-10-19T12:44:55.630Z,27.33
2018-10-19T12:47:39.111Z,25.10
2018-10-19T12:50:10.462Z,24.77
2018-10-19T12:52:41.801Z,25.73
2018-10-19T12:55:13.232Z,22.73
2018-10-19T12:57:44.363Z,21.40
2018-10-19T13:00:16.331Z,20.40
2018-10-19T13:02:48.704Z,22.30
2018-10-19T13:05:20.684Z,21.47
2018-10-19T13:07:51.909Z,22.23
2018-10-19T13:10:23.084Z,22.93
2018-10-19T13:12:54.344Z,21.50
2018-10-19T13:15:25.489Z,21.77
2018-10-19T13:17:57.143Z,21.07
2018-10-19T13:20:28.243Z,21.80
2018-10-19T13:22:59.467Z,21.27
2018-10-19T13:25:30.726Z,22.03
2018-10-19T13:28:02.099Z,20.63
2018-10-19T13:30:33.656Z,20.33
2018-10-19T13:33:04.825Z,20.33
2018-10-19T13:35:36.469Z,21.67
2018-10-19T13:38:07.740Z,18.80
2018-10-19T13:40:39.236Z,19.23
2018-10-19T13:43:10.680Z,18.93
2018-10-19T13:45:41.824Z,18.87
2018-10-19T13:48:12.925Z,19.83
2018-10-19T13:50:44.304Z,22.13
2018-10-19T13:53:15.826Z,19.37
2018-10-19T13:55:47.277Z,18.43
2018-10-19T13:58:18.334Z,18.57
2018-10-19T14:00:49.723Z,17.20
2018-10-19T14:03:21.066Z,18.20
2018-10-19T14:05:52.273Z,17.03
2018-10-19T14:08:23.455Z,16.37
2018-10-19T14:10:54.817Z,17.13
2018-10-19T14:13:26.547Z,16.97
2018-10-19T14:15:57.795Z,18.00
2018-10-19T14:18:29.471Z,17.13
2018-10-19T14:21:00.684Z,17.80
2018-10-19T14:23:31.791Z,22.20
2018-10-19T14:26:02.972Z,18.10
2018-10-19T14:28:34.613Z,19.43
2018-10-19T14:31:06.012Z,17.97
2018-10-19T14:33:37.431Z,17.93
2018-10-19T14:36:08.561Z,18.07
2018-10-19T14:38:39.900Z,17.43
2018-10-19T14:41:11.128Z,18.73
2018-10-19T14:43:42.812Z,18.20
2018-10-19T14:46:14.624Z,20.77
2018-10-19T14:48:45.892Z,18.63
2018-10-19T14:51:17.246Z,17.93
2018-10-19T14:53:48.424Z,17.67
2018-10-19T14:56:20.096Z,17.73
2018-10-19T14:58:51.198Z,17.40
2018-10-19T15:01:22.617Z,17.50
2018-10-19T15:03:53.788Z,20.60
2018-10-19T15:06:25.199Z,17.30
2018-10-19T15:08:56.649Z,17.97
2018-10-19T15:11:27.897Z,17.50
2018-10-19T15:13:59.026Z,20.87
2018-10-19T15:16:30.185Z,18.70
2018-10-19T15:19:01.576Z,20.83
2018-10-19T15:21:32.954Z,20.00
2018-10-19T15:24:04.335Z,19.57
2018-10-19T15:26:35.693Z,21.73
2018-10-19T15:29:07.426Z,19.30
2018-10-19T15:31:38.706Z,19.03
2018-10-19T15:34:09.882Z,19.37
2018-10-19T15:36:41.135Z,18.27
2018-10-19T15:39:13.063Z,19.27
2018-10-19T15:41:44.248Z,18.90
2018-10-19T15:44:15.687Z,18.47
2018-10-19T15:46:46.886Z,21.07
2018-10-19T15:49:19.168Z,18.33
2018-10-19T15:51:50.545Z,18.40
2018-10-19T15:54:21.792Z,17.87
2018-10-19T15:56:53.657Z,21.43
2018-10-19T15:59:25.267Z,20.30
2018-10-19T16:01:56.503Z,19.10
2018-10-19T16:04:28.229Z,19.27
2018-10-19T16:06:59.480Z,22.57
2018-10-19T16:09:31.137Z,24.17
2018-10-19T16:12:02.366Z,25.80
2018-10-19T16:14:34.084Z,19.87
2018-10-19T16:17:05.309Z,21.77
2018-10-19T16:19:36.672Z,21.33
2018-10-19T16:22:08.122Z,19.27
2018-10-19T16:24:39.424Z,20.27
2018-10-19T16:27:10.797Z,19.43
2018-10-19T16:29:42.157Z,19.57
2018-10-19T16:32:13.201Z,20.73
2018-10-19T16:34:44.674Z,20.37
2018-10-19T16:37:15.954Z,21.27
2018-10-19T16:39:47.317Z,21.10
2018-10-19T16:42:18.752Z,19.80
2018-10-19T16:44:49.918Z,21.00
2018-10-19T16:47:21.108Z,27.43
2018-10-19T16:49:52.499Z,24.53
2018-10-19T16:52:24.012Z,24.67
2018-10-19T16:54:55.295Z,23.70
2018-10-19T16:57:26.457Z,22.30
2018-10-19T16:59:57.688Z,23.43
2018-10-19T17:02:29.152Z,23.47
2018-10-19T17:05:00.343Z,25.57
2018-10-19T17:07:31.439Z,24.20
2018-10-19T17:10:02.812Z,23.73
2018-10-19T17:12:34.088Z,23.33
2018-10-19T17:15:05.397Z,26.57
2018-10-19T17:17:36.840Z,21.20
2018-10-19T17:20:08.255Z,23.03
2018-10-19T17:22:39.360Z,22.27
2018-10-19T17:25:12.167Z,24.03
2018-10-19T17:27:43.493Z,32.20
2018-10-19T17:30:15.032Z,31.47
2018-10-19T17:32:46.629Z,26.90
2018-10-19T17:35:17.920Z,26.30
2018-10-19T17:37:49.256Z,30.60
2018-10-19T17:40:20.832Z,28.80
2018-10-19T17:42:52.057Z,29.67
2018-10-19T17:45:23.218Z,32.07
2018-10-19T17:47:54.680Z,29.03
2018-10-19T17:50:25.852Z,28.07
2018-10-19T17:52:57.522Z,26.23
2018-10-19T17:55:28.795Z,26.03
2018-10-19T17:57:59.961Z,27.97
2018-10-19T18:00:31.196Z,26.03
2018-10-19T18:03:02.610Z,28.43
2018-10-19T18:05:33.988Z,29.47
2018-10-19T18:08:05.231Z,28.67
2018-10-19T18:10:36.544Z,31.97
2018-10-19T18:13:08.011Z,28.07
2018-10-19T18:15:39.592Z,27.70
2018-10-19T18:18:11.159Z,29.67
2018-10-19T18:20:42.287Z,30.07
2018-10-19T18:23:13.831Z,29.07
2018-10-19T18:25:44.848Z,33.10
2018-10-19T18:28:16.128Z,35.40
2018-10-19T18:30:47.278Z,34.23
2018-10-19T18:33:18.416Z,36.70
2018-10-19T18:35:49.940Z,38.40
2018-10-19T18:38:21.073Z,37.43
2018-10-19T18:40:52.409Z,35.93
2018-10-19T18:43:23.780Z,38.50
2018-10-19T18:45:55.189Z,34.80
2018-10-19T18:48:26.864Z,38.67
2018-10-19T18:50:57.983Z,34.33
2018-10-19T18:53:29.332Z,35.50
2018-10-19T18:56:00.616Z,34.93
2018-10-19T18:58:31.730Z,34.27
2018-10-19T19:01:03.172Z,36.63
2018-10-19T19:03:34.811Z,39.50
2018-10-19T19:06:06.836Z,39.43
2018-10-19T19:08:38.068Z,35.70
2018-10-19T19:11:09.528Z,36.40
2018-10-19T19:13:46.389Z,35.07
2018-10-19T19:16:22.352Z,36.90
2018-10-19T19:18:53.714Z,38.00
2018-10-19T19:21:25.132Z,38.03
2018-10-19T19:24:01.164Z,38.07
2018-10-19T19:26:32.584Z,43.03
2018-10-19T19:29:03.785Z,39.03
2018-10-19T19:31:34.969Z,42.00
2018-10-19T19:34:11.190Z,41.10
2018-10-19T19:36:42.416Z,39.93
2018-10-19T19:39:13.633Z,38.90
2018-10-19T19:41:49.940Z,35.90
2018-10-19T19:44:21.326Z,39.93
2018-10-19T19:46:52.592Z,39.30
2018-10-19T19:49:29.227Z,38.83
2018-10-19T19:52:00.364Z,45.63
2018-10-19T19:54:31.548Z,47.33
2018-10-19T19:57:02.961Z,48.30
2018-10-19T19:59:34.316Z,58.37
2018-10-19T20:02:05.687Z,57.40
2018-10-19T20:04:36.903Z,55.33
2018-10-19T20:07:08.233Z,57.47
2018-10-19T20:09:39.548Z,61.47
2018-10-19T20:12:10.843Z,54.87
2018-10-19T20:14:42.541Z,59.37
2018-10-19T20:17:13.911Z,50.97
2018-10-19T20:19:45.050Z,50.00
2018-10-19T20:22:16.699Z,51.63
2018-10-19T20:24:48.028Z,47.93
2018-10-19T20:27:19.240Z,51.03
2018-10-19T20:29:50.459Z,54.37
2018-10-19T20:32:21.728Z,49.03
2018-10-19T20:34:52.824Z,48.13
2018-10-19T20:37:24.179Z,48.37
2018-10-19T20:39:55.560Z,51.53
2018-10-19T20:42:26.941Z,46.63
2018-10-19T20:44:58.627Z,45.07
2018-10-19T20:47:29.812Z,48.87
2018-10-19T20:50:01.020Z,48.20
2018-10-19T20:52:32.128Z,46.37
2018-10-19T20:55:03.782Z,48.13
2018-10-19T20:57:35.072Z,49.93
2018-10-19T21:00:07.120Z,49.63
2018-10-19T21:02:38.538Z,52.30
2018-10-19T21:05:11.356Z,49.40
2018-10-19T21:08:45.704Z,48.03
2018-10-19T21:11:16.951Z,50.03
2018-10-19T21:13:48.300Z,50.40
2018-10-19T21:16:19.705Z,55.10
2018-10-19T21:18:51.173Z,50.53
2018-10-19T21:21:22.481Z,49.60
2018-10-19T21:23:53.896Z,48.23
2018-10-19T21:26:25.076Z,49.57
2018-10-19T21:28:56.475Z,48.83
2018-10-19T21:31:27.820Z,46.80
2018-10-19T21:33:59.224Z,49.90
2018-10-19T21:36:30.703Z,52.37
2018-10-19T21:39:01.846Z,50.00
2018-10-19T21:41:33.458Z,50.27
2018-10-19T21:44:04.589Z,46.30
2018-10-19T21:46:35.980Z,47.23
2018-10-19T21:49:07.991Z,49.57
2018-10-19T21:51:39.543Z,49.17
2018-10-19T21:54:10.728Z,49.80
2018-10-19T21:56:41.938Z,49.53
2018-10-19T21:59:13.342Z,48.27
2018-10-19T22:01:44.900Z,46.53
2018-10-19T22:04:16.089Z,50.33
2018-10-19T22:06:47.457Z,44.00
2018-10-19T22:09:18.852Z,46.27
2018-10-19T22:11:50.306Z,48.00
2018-10-19T22:14:21.435Z,47.13
2018-10-19T22:16:53.081Z,49.10
2018-10-19T22:19:24.594Z,51.53
2018-10-19T22:21:55.981Z,54.70
2018-10-19T22:24:27.173Z,60.87
2018-10-19T22:26:58.391Z,57.13
2018-10-19T22:29:29.737Z,62.50
2018-10-19T22:32:00.759Z,65.53
2018-10-19T22:34:32.033Z,60.83
2018-10-19T22:37:03.695Z,59.03
2018-10-19T22:39:34.908Z,55.67
2018-10-19T22:42:06.282Z,57.70
2018-10-19T22:44:37.524Z,57.97
2018-10-19T22:47:08.794Z,54.27
2018-10-19T22:49:40.412Z,55.40
2018-10-19T22:52:11.859Z,56.63
2018-10-19T22:54:43.692Z,52.87
2018-10-19T22:57:15.292Z,50.00
2018-10-19T22:59:46.439Z,51.73
2018-10-19T23:02:17.637Z,53.90
2018-10-19T23:04:48.830Z,52.47
2018-10-19T23:07:20.484Z,53.13
2018-10-19T23:09:51.581Z,56.20
2018-10-19T23:12:23.269Z,58.50
2018-10-19T23:14:54.540Z,54.40
2018-10-19T23:17:25.805Z,58.00
2018-10-19T23:19:56.952Z,52.00
2018-10-19T23:22:28.573Z,55.87
2018-10-19T23:24:59.772Z,56.23
2018-10-19T23:27:30.920Z,53.03
2018-10-19T23:30:02.340Z,55.03
2018-10-19T23:32:33.508Z,54.63
2018-10-19T23:35:05.193Z,51.37
2018-10-19T23:37:36.482Z,50.50
2018-10-19T23:40:08.437Z,52.73
2018-10-19T23:42:39.840Z,49.80
2018-10-19T23:45:11.205Z,51.40
2018-10-19T23:47:42.383Z,48.70
2018-10-19T23:50:13.785Z,47.20
2018-10-19T23:52:44.973Z,48.80
2018-10-19T23:55:16.271Z,52.90
2018-10-19T23:57:47.430Z,50.03
